createdAt,value
2019-04-20T00:01:20.013Z,47.02
2019-04-20T00:03:45.063Z,45.59
2019-04-20T00:06:13.584Z,46.76
2019-04-20T00:08:44.260Z,48.01
2019-04-20T00:11:23.183Z,45.46
2019-04-20T00:13:52.845Z,45.46
2019-04-20T00:16:16.849Z,48.24
2019-04-20T00:18:51.930Z,47.88
2019-04-20T00:21:42.658Z,48.13
2019-04-20T00:24:21.695Z,48.59
2019-04-20T00:27:20.679Z,49.04
2019-04-20T00:29:35.483Z,49.14
2019-04-20T00:32:01.645Z,48.92
2019-04-20T00:34:26.745Z,47.63
2019-04-20T00:36:51.935Z,47.80
2019-04-20T00:39:21.865Z,47.80
2019-04-20T00:41:57.144Z,48.69
2019-04-20T00:44:25.127Z,49.47
2019-04-20T00:47:04.312Z,51.19
2019-04-20T00:49:38.871Z,51.19
2019-04-20T00:52:23.726Z,51.18
2019-04-20T00:54:26.349Z,51.25
2019-04-20T00:57:05.790Z,51.58
2019-04-20T00:59:42.945Z,50.54
2019-04-20T01:02:12.588Z,51.84
2019-04-20T01:04:52.398Z,52.20
2019-04-20T01:07:29.113Z,53.00
2019-04-20T01:10:06.977Z,53.28
2019-04-20T01:12:38.793Z,52.49
2019-04-20T01:15:11.884Z,52.73
2019-04-20T01:17:41.738Z,52.33
2019-04-20T01:20:11.794Z,52.33
2019-04-20T01:22:50.728Z,52.84
2019-04-20T01:25:18.154Z,53.71
2019-04-20T01:28:06.602Z,54.59
2019-04-20T01:30:25.344Z,55.10
2019-04-20T01:33:02.427Z,54.99
2019-04-20T01:35:35.532Z,54.40
2019-04-20T01:38:09.623Z,54.52
2019-04-20T01:40:21.148Z,54.04
2019-04-20T01:42:51.211Z,54.17
2019-04-20T01:45:27.395Z,54.18
2019-04-20T01:47:55.018Z,54.07
2019-04-20T01:50:27.967Z,54.95
2019-04-20T01:53:08.366Z,54.89
2019-04-20T01:55:55.651Z,54.89
2019-04-20T01:58:28.729Z,55.01
2019-04-20T02:01:00.802Z,55.36
2019-04-20T02:03:40.279Z,55.36
2019-04-20T02:06:11.651Z,53.58
2019-04-20T02:08:37.879Z,52.32
2019-04-20T02:11:09.379Z,52.69
2019-04-20T02:13:44.411Z,55.43
2019-04-20T02:16:15.819Z,55.94
2019-04-20T02:19:03.007Z,51.72
2019-04-20T02:21:28.709Z,51.72
2019-04-20T02:23:51.479Z,55.57
2019-04-20T02:26:17.924Z,54.14
2019-04-20T02:32:04.734Z,55.75
2019-04-20T02:34:33.212Z,55.75
2019-04-20T02:42:07.935Z,57.40
2019-04-20T02:44:42.290Z,57.44
2019-04-20T02:52:17.149Z,54.22
2019-04-20T02:54:36.283Z,55.66
2019-04-20T02:57:34.289Z,54.63
2019-04-20T03:02:01.383Z,53.77
2019-04-20T03:04:25.685Z,54.67
2019-04-20T03:07:04.135Z,56.60
2019-04-20T03:09:39.965Z,58.29
2019-04-20T03:12:21.633Z,59.08
2019-04-20T03:14:39.659Z,58.67
2019-04-20T03:17:18.205Z,58.28
2019-04-20T03:19:41.205Z,58.28
2019-04-20T03:22:21.361Z,57.88
2019-04-20T03:24:49.587Z,59.43
2019-04-20T03:27:24.428Z,59.12
2019-04-20T03:30:23.954Z,58.79
2019-04-20T03:33:04.404Z,59.21
2019-04-20T03:38:11.723Z,60.34
2019-04-20T03:40:37.353Z,61.31
2019-04-20T03:42:52.825Z,61.29
2019-04-20T03:45:24.850Z,61.29
2019-04-20T03:48:06.118Z,60.16
2019-04-20T03:50:46.336Z,59.84
2019-04-20T03:53:19.910Z,58.18
2019-04-20T03:56:19.557Z,58.96
2019-04-20T03:58:55.648Z,58.96
2019-04-20T04:01:57.491Z,59.50
2019-04-20T04:04:17.916Z,59.38
2019-04-20T04:06:36.006Z,59.38
2019-04-20T04:09:14.977Z,59.36
2019-04-20T04:11:43.467Z,60.10
2019-04-20T04:14:00.766Z,60.10
2019-04-20T04:16:37.928Z,59.72
2019-04-20T04:19:11.887Z,59.52
2019-04-20T04:21:49.788Z,60.49
2019-04-20T04:24:17.220Z,60.49
2019-04-20T04:26:49.980Z,60.35
2019-04-20T04:29:25.730Z,60.57
2019-04-20T04:32:01.173Z,61.18
2019-04-20T04:34:23.869Z,61.32
2019-04-20T04:36:59.420Z,61.32
2019-04-20T04:39:30.950Z,60.36
2019-04-20T04:42:07.500Z,57.39
2019-04-20T04:44:23.931Z,56.33
2019-04-20T04:46:49.411Z,56.07
2019-04-20T04:49:19.520Z,58.04
2019-04-20T04:51:52.364Z,57.07
2019-04-20T04:54:26.883Z,60.13
2019-04-20T04:56:46.272Z,59.94
2019-04-20T04:59:15.413Z,59.88
2019-04-20T05:01:47.819Z,59.17
2019-04-20T05:04:44.506Z,59.51
2019-04-20T05:07:02.524Z,58.33
2019-04-20T05:09:22.192Z,57.28
2019-04-20T05:11:59.734Z,53.64
2019-04-20T05:14:38.085Z,47.91
2019-04-20T05:17:11.637Z,44.28
2019-04-20T05:19:47.790Z,40.01
2019-04-20T05:22:27.588Z,36.00
2019-04-20T05:25:07.122Z,36.00
2019-04-20T05:27:51.249Z,35.25
2019-04-20T05:30:01.342Z,32.01
2019-04-20T05:32:39.624Z,31.90
2019-04-20T05:35:39.223Z,30.33
2019-04-20T05:38:05.143Z,30.25
2019-04-20T05:40:27.515Z,25.85
2019-04-20T05:43:07.936Z,25.85
2019-04-20T05:45:29.944Z,25.16
2019-04-20T05:48:02.572Z,25.73
2019-04-20T05:50:45.285Z,25.90
2019-04-20T05:53:12.968Z,25.04
2019-04-20T05:55:43.190Z,23.94
2019-04-20T05:58:18.056Z,23.37
2019-04-20T06:00:56.853Z,21.93
2019-04-20T06:03:18.470Z,21.61
2019-04-20T06:05:57.880Z,20.90
2019-04-20T06:08:32.070Z,20.13
2019-04-20T06:10:56.457Z,19.97
2019-04-20T06:13:38.334Z,18.73
2019-04-20T06:16:18.392Z,17.59
2019-04-20T06:18:59.394Z,16.35
2019-04-20T06:21:51.920Z,15.50
2019-04-20T06:24:36.354Z,15.18
2019-04-20T06:29:25.249Z,16.00
2019-04-20T06:31:59.339Z,15.15
2019-04-20T06:34:36.840Z,15.15
2019-04-20T06:37:02.758Z,14.41
2019-04-20T06:39:40.316Z,15.28
2019-04-20T06:44:50.945Z,15.53
2019-04-20T06:50:00.425Z,16.56
2019-04-20T06:55:03.035Z,15.94
2019-04-20T06:57:49.919Z,13.72
2019-04-20T07:00:14.099Z,11.79
2019-04-20T07:02:41.556Z,11.91
2019-04-20T07:05:12.751Z,13.15
2019-04-20T07:07:43.173Z,11.26
2019-04-20T07:12:40.934Z,10.01
2019-04-20T07:15:15.064Z,9.33
2019-04-20T07:17:53.624Z,10.45
2019-04-20T07:20:50.190Z,9.76
2019-04-20T07:23:21.374Z,10.27
2019-04-20T07:25:52.229Z,8.98
2019-04-20T07:28:27.772Z,8.18
2019-04-20T07:30:50.792Z,8.41
2019-04-20T07:33:24.558Z,8.85
2019-04-20T07:35:50.915Z,8.57
2019-04-20T07:38:31.388Z,7.99
2019-04-20T07:40:51.298Z,9.15
2019-04-20T07:43:26.640Z,8.03
2019-04-20T07:45:56.894Z,7.60
2019-04-20T07:48:26.010Z,7.53
2019-04-20T07:50:52.094Z,7.65
2019-04-20T07:53:25.720Z,7.23
2019-04-20T07:56:04.917Z,6.83
2019-04-20T07:58:22.688Z,6.58
2019-04-20T08:01:14.241Z,6.00
2019-04-20T08:03:57.018Z,6.00
2019-04-20T08:06:16.442Z,5.34
2019-04-20T08:08:53.172Z,5.51
2019-04-20T08:11:27.011Z,4.96
2019-04-20T08:14:06.007Z,4.65
2019-04-20T08:16:43.897Z,5.18
2019-04-20T08:19:01.235Z,4.72
2019-04-20T08:21:35.098Z,4.72
2019-04-20T08:24:02.493Z,4.54
2019-04-20T08:26:23.532Z,4.52
2019-04-20T08:29:04.794Z,4.65
2019-04-20T08:32:10.363Z,5.40
2019-04-20T08:34:49.045Z,4.40
2019-04-20T08:37:11.726Z,5.10
2019-04-20T08:39:55.565Z,5.10
2019-04-20T08:42:16.288Z,4.12
2019-04-20T08:47:27.886Z,4.22
2019-04-20T08:53:03.850Z,3.89
2019-04-20T08:55:09.236Z,3.89
2019-04-20T08:57:27.029Z,3.37
2019-04-20T08:59:59.615Z,3.70
2019-04-20T09:02:28.068Z,4.45
2019-04-20T09:05:03.177Z,4.60
2019-04-20T09:07:33.228Z,4.49
2019-04-20T09:10:24.078Z,4.22
2019-04-20T09:12:45.177Z,4.02
2019-04-20T09:15:04.131Z,4.02
2019-04-20T09:17:49.400Z,4.33
2019-04-20T09:20:29.474Z,4.35
2019-04-20T09:28:27.622Z,3.49
2019-04-20T09:31:09.487Z,3.19
2019-04-20T09:34:03.014Z,4.18
2019-04-20T09:36:39.790Z,5.46
2019-04-20T09:39:12.712Z,5.25
2019-04-20T09:41:59.788Z,4.82
2019-04-20T09:44:13.547Z,4.68
2019-04-20T09:50:56.514Z,4.83
2019-04-20T09:54:56.395Z,3.98
2019-04-20T10:01:21.635Z,3.29
2019-04-20T10:07:28.707Z,3.65
2019-04-20T10:10:42.652Z,2.92
2019-04-20T10:13:11.439Z,2.51
2019-04-20T10:15:41.625Z,2.73
2019-04-20T10:18:11.955Z,2.91
2019-04-20T10:20:43.155Z,2.47
2019-04-20T10:23:12.544Z,2.60
2019-04-20T10:25:42.608Z,4.80
2019-04-20T10:28:11.827Z,4.80
2019-04-20T10:30:41.140Z,6.08
2019-04-20T10:33:10.157Z,5.07
2019-04-20T10:35:39.441Z,6.07
2019-04-20T10:38:15.696Z,4.88
2019-04-20T10:40:55.930Z,4.88
2019-04-20T10:43:16.342Z,4.32
2019-04-20T10:45:46.687Z,4.53
2019-04-20T10:48:17.249Z,4.39
2019-04-20T10:50:47.230Z,4.81
2019-04-20T10:53:17.608Z,5.36
2019-04-20T10:57:55.489Z,8.34
2019-04-20T11:00:39.849Z,8.18
2019-04-20T11:03:10.311Z,8.18
2019-04-20T11:05:42.546Z,7.43
2019-04-20T11:08:12.798Z,7.43
2019-04-20T11:10:55.575Z,7.49
2019-04-20T11:13:15.180Z,7.49
2019-04-20T11:15:44.442Z,6.64
2019-04-20T11:18:13.762Z,5.99
2019-04-20T11:20:43.631Z,7.37
2019-04-20T11:23:11.887Z,8.02
2019-04-20T11:25:42.153Z,8.30
2019-04-20T11:28:12.369Z,7.47
2019-04-20T11:30:40.978Z,8.45
2019-04-20T11:33:10.018Z,8.45
2019-04-20T11:35:41.641Z,7.73
2019-04-20T11:38:12.490Z,6.47
2019-04-20T11:40:42.191Z,6.46
2019-04-20T11:43:11.551Z,6.14
2019-04-20T11:45:40.720Z,6.36
2019-04-20T11:48:09.777Z,6.36
2019-04-20T11:50:39.846Z,6.59
2019-04-20T11:53:09.169Z,6.94
2019-04-20T11:55:38.281Z,9.06
2019-04-20T11:58:08.097Z,9.28
2019-04-20T12:00:53.847Z,9.87
2019-04-20T12:03:27.939Z,9.67
2019-04-20T12:05:53.695Z,9.39
2019-04-20T12:08:22.965Z,8.10
2019-04-20T12:10:56.489Z,7.56
2019-04-20T12:13:24.852Z,6.60
2019-04-20T12:15:55.977Z,5.51
2019-04-20T12:18:25.606Z,6.93
2019-04-20T12:20:56.722Z,7.05
2019-04-20T12:23:26.551Z,7.05
2019-04-20T12:25:56.389Z,7.09
2019-04-20T12:28:25.888Z,6.88
2019-04-20T12:30:55.970Z,7.80
2019-04-20T12:33:26.479Z,8.86
2019-04-20T12:35:56.406Z,6.89
2019-04-20T12:38:25.474Z,6.89
2019-04-20T12:40:55.777Z,7.46
2019-04-20T12:43:25.933Z,6.82
2019-04-20T12:45:55.968Z,5.65
2019-04-20T12:48:25.995Z,6.06
2019-04-20T12:50:55.754Z,7.67
2019-04-20T12:53:24.952Z,8.03
2019-04-20T12:55:54.796Z,6.95
2019-04-20T12:58:26.332Z,7.42
2019-04-20T13:00:58.248Z,8.20
2019-04-20T13:03:29.775Z,8.37
2019-04-20T13:06:01.843Z,7.46
2019-04-20T13:08:38.110Z,8.03
2019-04-20T13:11:08.864Z,8.25
2019-04-20T13:13:58.609Z,7.78
2019-04-20T13:16:32.380Z,7.83
2019-04-20T13:19:05.552Z,8.37
2019-04-20T13:21:35.638Z,9.00
2019-04-20T13:24:06.931Z,8.66
2019-04-20T13:26:37.280Z,8.57
2019-04-20T13:29:06.746Z,8.33
2019-04-20T13:45:48.978Z,10.05
2019-04-20T13:48:19.260Z,10.63
2019-04-20T13:50:49.657Z,10.24
2019-04-20T13:53:19.227Z,10.39
2019-04-20T13:55:49.558Z,10.53
2019-04-20T13:58:37.827Z,10.70
2019-04-20T14:01:26.463Z,10.12
2019-04-20T14:04:18.666Z,10.19
2019-04-20T14:06:51.070Z,10.19
2019-04-20T14:09:21.248Z,10.06
2019-04-20T14:11:51.732Z,10.56
2019-04-20T14:14:21.368Z,10.56
2019-04-20T14:16:50.753Z,10.58
2019-04-20T14:19:20.960Z,11.04
2019-04-20T14:21:50.439Z,11.54
2019-04-20T14:24:19.531Z,11.83
2019-04-20T14:26:48.576Z,11.46
2019-04-20T14:29:17.023Z,11.28
2019-04-20T14:31:46.409Z,11.28
2019-04-20T14:34:15.461Z,11.93
2019-04-20T14:36:44.636Z,11.63
2019-04-20T14:39:14.048Z,12.16
2019-04-20T14:41:44.453Z,11.92
2019-04-20T14:44:14.033Z,11.92
2019-04-20T14:46:43.043Z,11.58
2019-04-20T14:49:12.563Z,11.33
2019-04-20T14:51:41.670Z,11.17
2019-04-20T14:54:11.712Z,11.39
2019-04-20T14:56:41.317Z,11.90
2019-04-20T14:59:19.913Z,12.02
2019-04-20T15:02:15.312Z,12.15
2019-04-20T15:04:45.361Z,13.06
2019-04-20T15:07:15.021Z,13.06
2019-04-20T15:09:44.707Z,12.68
2019-04-20T15:12:14.933Z,12.52
2019-04-20T15:14:44.911Z,12.88
2019-04-20T15:17:25.962Z,12.79
2019-04-20T15:20:05.826Z,12.21
2019-04-20T15:22:39.121Z,12.07
2019-04-20T15:25:09.675Z,11.62
2019-04-20T15:27:41.042Z,11.52
2019-04-20T15:30:09.613Z,11.43
2019-04-20T15:32:38.960Z,10.96
2019-04-20T15:35:09.075Z,10.93
2019-04-20T15:37:39.487Z,10.52
2019-04-20T15:40:10.945Z,11.05
2019-04-20T15:42:52.530Z,11.05
2019-04-20T15:45:13.470Z,11.17
2019-04-20T15:47:41.847Z,11.17
2019-04-20T15:50:13.770Z,10.95
2019-04-20T15:52:50.458Z,10.73
2019-04-20T15:55:22.668Z,11.13
2019-04-20T15:57:44.915Z,10.88
2019-04-20T16:00:16.228Z,11.08
2019-04-20T16:02:49.790Z,10.39
2019-04-20T16:05:51.407Z,10.37
2019-04-20T16:08:32.394Z,10.50
2019-04-20T16:11:01.446Z,10.19
2019-04-20T16:13:37.947Z,9.89
2019-04-20T16:16:05.874Z,10.29
2019-04-20T16:18:35.163Z,10.28
2019-04-20T16:21:11.185Z,9.86
2019-04-20T16:24:08.718Z,9.75
2019-04-20T16:26:44.114Z,9.79
2019-04-20T16:29:13.566Z,10.07
2019-04-20T16:31:46.407Z,10.02
2019-04-20T16:34:13.766Z,10.35
2019-04-20T16:36:44.377Z,10.35
2019-04-20T16:39:14.422Z,10.28
2019-04-20T16:41:44.491Z,10.36
2019-04-20T16:44:15.706Z,10.36
2019-04-20T16:46:45.925Z,10.40
2019-04-20T16:49:15.293Z,9.95
2019-04-20T16:51:45.091Z,10.39
2019-04-20T16:54:14.425Z,10.24
2019-04-20T16:56:44.559Z,10.30
2019-04-20T16:59:15.495Z,10.32
2019-04-20T17:01:44.823Z,10.70
2019-04-20T17:04:19.150Z,10.99
2019-04-20T17:07:06.010Z,10.90
2019-04-20T17:09:35.732Z,11.07
2019-04-20T17:12:05.857Z,10.98
2019-04-20T17:14:35.701Z,10.44
2019-04-20T17:17:04.848Z,10.72
2019-04-20T17:19:33.734Z,11.01
2019-04-20T17:22:05.479Z,11.16
2019-04-20T17:24:35.670Z,11.61
2019-04-20T17:27:28.991Z,11.53
2019-04-20T17:30:24.996Z,11.61
2019-04-20T17:32:57.858Z,12.00
2019-04-20T17:35:41.134Z,12.20
2019-04-20T17:38:00.578Z,12.21
2019-04-20T17:40:48.723Z,12.68
2019-04-20T17:43:10.556Z,12.68
2019-04-20T17:45:41.561Z,13.17
2019-04-20T17:48:17.682Z,13.30
2019-04-20T17:50:55.607Z,13.52
2019-04-20T17:53:24.019Z,13.42
2019-04-20T17:55:49.968Z,13.49
2019-04-20T17:58:21.933Z,13.67
2019-04-20T18:01:03.604Z,13.90
2019-04-20T18:06:30.367Z,14.67
2019-04-20T18:08:56.175Z,14.94
2019-04-20T18:11:14.985Z,14.90
2019-04-20T18:13:40.628Z,15.12
2019-04-20T18:16:39.433Z,15.55
2019-04-20T18:19:19.710Z,15.55
2019-04-20T18:21:55.947Z,16.02
2019-04-20T18:24:49.240Z,16.40
2019-04-20T18:27:24.524Z,16.78
2019-04-20T18:29:49.091Z,16.78
2019-04-20T18:38:00.889Z,18.25
2019-04-20T18:41:20.998Z,18.70
2019-04-20T18:44:57.148Z,19.25
2019-04-20T18:49:01.097Z,19.41
2019-04-20T18:52:03.861Z,20.28
2019-04-20T18:54:36.650Z,21.53
2019-04-20T18:57:03.440Z,21.53
2019-04-20T18:59:40.598Z,21.95
2019-04-20T19:02:10.710Z,22.74
2019-04-20T19:04:37.557Z,23.63
2019-04-20T19:07:07.875Z,24.55
2019-04-20T19:09:38.203Z,24.20
2019-04-20T19:12:11.485Z,24.39
2019-04-20T19:15:30.507Z,25.23
2019-04-20T19:18:11.511Z,25.80
2019-04-20T19:20:37.021Z,25.80
2019-04-20T19:23:10.751Z,25.01
2019-04-20T19:25:42.122Z,24.07
2019-04-20T19:28:10.608Z,25.75
2019-04-20T19:30:50.199Z,25.76
2019-04-20T19:33:27.755Z,25.51
2019-04-20T19:35:53.105Z,25.21
2019-04-20T19:38:22.249Z,26.87
2019-04-20T19:40:56.533Z,27.46
2019-04-20T19:43:28.069Z,27.46
2019-04-20T19:46:33.632Z,27.68
2019-04-20T19:48:33.633Z,28.33
2019-04-20T19:51:10.164Z,28.57
2019-04-20T19:53:45.397Z,29.31
2019-04-20T19:56:05.061Z,29.50
2019-04-20T19:58:36.770Z,29.37
2019-04-20T20:00:57.694Z,29.55
2019-04-20T20:03:27.792Z,29.39
2019-04-20T20:05:59.388Z,29.15
2019-04-20T20:08:33.095Z,29.99
2019-04-20T20:11:03.018Z,30.53
2019-04-20T20:13:41.226Z,30.50
2019-04-20T20:17:39.962Z,31.45
2019-04-20T20:20:16.301Z,31.68
2019-04-20T20:22:30.330Z,31.77
2019-04-20T20:24:51.240Z,31.72
2019-04-20T20:27:31.756Z,32.00
2019-04-20T20:30:00.499Z,32.68
2019-04-20T20:32:38.845Z,32.68
2019-04-20T20:35:04.995Z,32.86
2019-04-20T20:37:34.696Z,33.43
2019-04-20T20:40:12.951Z,33.53
2019-04-20T20:42:45.783Z,33.69
2019-04-20T20:45:14.881Z,34.06
2019-04-20T20:47:58.105Z,34.70
2019-04-20T20:50:28.485Z,34.91
2019-04-20T20:52:50.819Z,35.07
2019-04-20T20:55:24.594Z,35.07
2019-04-20T20:57:53.585Z,35.56
2019-04-20T21:00:25.251Z,36.05
2019-04-20T21:02:50.299Z,36.61
2019-04-20T21:05:13.679Z,36.23
2019-04-20T21:07:42.952Z,36.49
2019-04-20T21:10:15.262Z,36.37
2019-04-20T21:12:52.279Z,36.38
2019-04-20T21:15:22.152Z,36.48
2019-04-20T21:18:11.115Z,36.92
2019-04-20T21:20:40.647Z,37.37
2019-04-20T21:23:07.337Z,37.51
2019-04-20T21:25:33.473Z,37.68
2019-04-20T21:28:00.512Z,37.68
2019-04-20T21:30:35.048Z,37.65
2019-04-20T21:33:03.836Z,37.98
2019-04-20T21:35:39.046Z,38.17
2019-04-20T21:38:07.737Z,38.39
2019-04-20T21:40:39.985Z,37.58
2019-04-20T21:43:08.304Z,38.77
2019-04-20T21:45:39.425Z,38.91
2019-04-20T21:48:29.913Z,39.20
2019-04-20T21:50:59.796Z,39.49
2019-04-20T21:53:18.280Z,38.20
2019-04-20T21:55:43.728Z,40.42
2019-04-20T21:58:13.968Z,40.02
2019-04-20T22:01:05.158Z,39.14
2019-04-20T22:03:24.842Z,40.09
2019-04-20T22:06:06.802Z,40.28
2019-04-20T22:08:39.416Z,41.03
2019-04-20T22:11:08.882Z,40.11
2019-04-20T22:13:41.996Z,41.06
2019-04-20T22:16:12.724Z,41.25
2019-04-20T22:18:58.265Z,40.97
2019-04-20T22:21:22.751Z,42.08
2019-04-20T22:23:59.958Z,41.35
2019-04-20T22:26:26.804Z,41.56
2019-04-20T22:28:52.149Z,41.39
2019-04-20T22:31:22.280Z,41.48
2019-04-20T22:33:52.388Z,41.62
2019-04-20T22:36:24.813Z,42.04
2019-04-20T22:39:13.682Z,42.68
2019-04-20T22:42:00.247Z,41.96
2019-04-20T22:44:30.564Z,43.20
2019-04-20T22:46:58.754Z,43.02
2019-04-20T22:49:44.308Z,43.02
2019-04-20T22:52:11.994Z,43.48
2019-04-20T22:54:44.694Z,44.50
2019-04-20T22:57:10.747Z,43.91
2019-04-20T22:59:44.686Z,44.86
2019-04-20T23:02:07.575Z,44.27
2019-04-20T23:04:37.085Z,45.02
2019-04-20T23:07:06.513Z,45.57
2019-04-20T23:09:43.781Z,46.03
2019-04-20T23:12:12.231Z,46.03
2019-04-20T23:14:38.592Z,46.48
2019-04-20T23:17:08.274Z,46.27
2019-04-20T23:19:45.713Z,46.27
2019-04-20T23:22:11.666Z,46.80
2019-04-20T23:24:39.596Z,47.29
2019-04-20T23:27:16.370Z,46.84
2019-04-20T23:29:41.477Z,46.84
2019-04-20T23:32:12.620Z,48.25
2019-04-20T23:34:42.522Z,47.81
2019-04-20T23:37:19.553Z,46.69
2019-04-20T23:39:45.007Z,47.31
2019-04-20T23:42:17.974Z,47.04
2019-04-20T23:45:07.491Z,47.30
2019-04-20T23:48:03.407Z,46.77
2019-04-20T23:50:49.058Z,47.68
2019-04-20T23:53:20.074Z,48.29
2019-04-20T23:55:33.948Z,47.64
2019-04-20T23:58:06.967Z,47.39
